Terminal Aerodrome Forecast
Issued by NWS Raleigh/Durham, NC

Current Version | Previous Version | Text Only | Print | Product List | Glossary On
Versions: 1 2 3 4 5 6 7 8 9 10 11 12 13 14 15 16 17 18 19 20 21 22 23 24 25 26 27 28 29 30 31 32 33 34 35 36 37 38 39 40
000 FTUS42 KRAH 222334 TAFRDU TAF KRDU 222334Z 2300/2324 VRB03KT P6SM FEW120 SCT250 TEMPO 2309/2313 SCT020 FM231300 14003KT P6SM SCT070 BKN120 FM231800 10005KT 6SM -RA BKN025 OVC070 FM232100 11007KT 3SM -RA BR OVC007=

USA.gov is the U.S. government's official web portal to all federal, state and local government web resources and services.